General Rondeau, Argentina
Current Conditions -  °F | °C
As of 2:00 PM on Wednesday 26 Nov 2014 (Local Time) from SAZN Reporting Station
Clear Clear  
Wind Chill: 79°   Ceiling: Unl
Heat Index: 79°   Visibility: 6mi
Dew Point: 25°   Wind: 12mph
Humidity: 14%   Direction: 270°W
Pressure: 29.94"   Gusts: NA
Location:  38.2°S, 63.19°W
Report Text: SAZN 261700Z 27010KT CAVOK 26/M04 Q1014
Loading
Personal Weather Stations






























Interactive Weather Map New forecast layout! Learn more

10-Day Weather Forecast

Advertisements
Track Severe Weather on mobile